AEE155 LGKV-LGAV
Flight info
| Callsign | AEE155 |
|---|---|
| Flight time | 0h 46m |
| Altitude | 23000 |
| Route | AMALA N127 LMO/N0410F240 T162 NEVRA |
| Aircraft | A320/M-SDE3FGHIRWY/LB1 |
Departure
| Time | 2026-05-04 19:02 |
|---|---|
| Airport | Kavala Alexander the Great International Airport (LGKV) |
Arrival
| Time | 2026-05-04 19:48 |
|---|---|
| Airport | Athens Eleftherios Venizelos International Airport (LGAV) |
| Time | Latitude | Longitude | Altitude | Speed | Heading |
|---|---|---|---|---|---|
| 2026-05-04 18:36 | 40.92125 | 24.62360 | 20 ft | 0 kts | 325° |
| 2026-05-04 18:52 | 40.92113 | 24.62371 | 21 ft | 4 kts | 325° |
| 2026-05-04 18:52 | 40.92095 | 24.62389 | 21 ft | 3 kts | 325° |
| 2026-05-04 18:53 | 40.92072 | 24.62405 | 19 ft | 4 kts | 343° |
| 2026-05-04 18:53 | 40.92047 | 24.62409 | 23 ft | 4 kts | 18° |
| 2026-05-04 18:53 | 40.92026 | 24.62391 | 21 ft | 4 kts | 55° |
| 2026-05-04 18:53 | 40.92032 | 24.62404 | 23 ft | 4 kts | 56° |
| 2026-05-04 18:54 | 40.92043 | 24.62424 | 20 ft | 0 kts | 56° |
| 2026-05-04 18:56 | 40.92049 | 24.62436 | 21 ft | 3 kts | 56° |
| 2026-05-04 18:57 | 40.92041 | 24.62461 | 19 ft | 4 kts | 133° |
| 2026-05-04 18:57 | 40.92009 | 24.62492 | 19 ft | 7 kts | 149° |
| 2026-05-04 18:57 | 40.91962 | 24.62538 | 20 ft | 10 kts | 127° |
| 2026-05-04 18:57 | 40.91976 | 24.62624 | 20 ft | 8 kts | 56° |
| 2026-05-04 18:58 | 40.92011 | 24.62693 | 20 ft | 10 kts | 56° |
| 2026-05-04 18:58 | 40.92057 | 24.62783 | 20 ft | 13 kts | 56° |
| 2026-05-04 18:58 | 40.92115 | 24.62895 | 19 ft | 16 kts | 56° |
| 2026-05-04 18:58 | 40.92187 | 24.63027 | 19 ft | 19 kts | 54° |
| 2026-05-04 18:59 | 40.92268 | 24.63184 | 19 ft | 21 kts | 56° |
| 2026-05-04 18:59 | 40.92302 | 24.63270 | 19 ft | 9 kts | 92° |
| 2026-05-04 18:59 | 40.92257 | 24.63340 | 20 ft | 12 kts | 148° |
| 2026-05-04 18:59 | 40.92176 | 24.63402 | 19 ft | 14 kts | 161° |
| 2026-05-04 19:00 | 40.92118 | 24.63343 | 19 ft | 8 kts | 236° |
| 2026-05-04 19:00 | 40.92103 | 24.63312 | 19 ft | 0 kts | 236° |
| 2026-05-04 19:01 | 40.92078 | 24.63266 | 20 ft | 29 kts | 234° |
| 2026-05-04 19:02 | 40.91803 | 24.62739 | 23 ft | 104 kts | 235° |
| 2026-05-04 19:02 | 40.91483 | 24.62130 | 21 ft | 138 kts | 235° |
| 2026-05-04 19:02 | 40.90872 | 24.61002 | 418 ft | 152 kts | 234° |
| 2026-05-04 19:02 | 40.90251 | 24.59856 | 1094 ft | 154 kts | 237° |
| 2026-05-04 19:03 | 40.89629 | 24.58691 | 1758 ft | 155 kts | 239° |
| 2026-05-04 19:03 | 40.88952 | 24.57463 | 2124 ft | 177 kts | 229° |
| 2026-05-04 19:03 | 40.87772 | 24.56801 | 2464 ft | 201 kts | 177° |
| 2026-05-04 19:03 | 40.86453 | 24.57534 | 2788 ft | 219 kts | 130° |
| 2026-05-04 19:04 | 40.85853 | 24.59343 | 3434 ft | 219 kts | 87° |
| 2026-05-04 19:04 | 40.86320 | 24.61187 | 4247 ft | 214 kts | 45° |
| 2026-05-04 19:04 | 40.87591 | 24.62102 | 5163 ft | 211 kts | 10° |
| 2026-05-04 19:04 | 40.89051 | 24.62176 | 6160 ft | 212 kts | 0° |
| 2026-05-04 19:05 | 40.90533 | 24.62056 | 7036 ft | 215 kts | 358° |
| 2026-05-04 19:05 | 40.92033 | 24.61968 | 7897 ft | 220 kts | 5° |
| 2026-05-04 19:05 | 40.93572 | 24.62494 | 8361 ft | 241 kts | 28° |
| 2026-05-04 19:05 | 40.94875 | 24.63982 | 9010 ft | 257 kts | 52° |
| 2026-05-04 19:06 | 40.95634 | 24.66159 | 9896 ft | 267 kts | 73° |
| 2026-05-04 19:06 | 40.95707 | 24.68659 | 10721 ft | 281 kts | 95° |
| 2026-05-04 19:06 | 40.94981 | 24.71111 | 11506 ft | 297 kts | 120° |
| 2026-05-04 19:06 | 40.93456 | 24.73028 | 12283 ft | 313 kts | 147° |
| 2026-05-04 19:07 | 40.91349 | 24.73880 | 13063 ft | 325 kts | 175° |
| 2026-05-04 19:07 | 40.89020 | 24.73845 | 13409 ft | 347 kts | 177° |
| 2026-05-04 19:07 | 40.86557 | 24.74315 | 13582 ft | 369 kts | 167° |
| 2026-05-04 19:07 | 40.83988 | 24.74973 | 14030 ft | 381 kts | 167° |
| 2026-05-04 19:08 | 40.81364 | 24.75645 | 14659 ft | 386 kts | 167° |
| 2026-05-04 19:08 | 40.78701 | 24.76249 | 15303 ft | 392 kts | 173° |
| 2026-05-04 19:08 | 40.75958 | 24.76356 | 15956 ft | 396 kts | 179° |
| 2026-05-04 19:08 | 40.73189 | 24.76198 | 16599 ft | 400 kts | 183° |
| 2026-05-04 19:09 | 40.70395 | 24.76048 | 17232 ft | 404 kts | 176° |
| 2026-05-04 19:09 | 40.67610 | 24.76544 | 17903 ft | 405 kts | 163° |
| 2026-05-04 19:09 | 40.65014 | 24.77877 | 18489 ft | 407 kts | 152° |
| 2026-05-04 19:09 | 40.62462 | 24.79525 | 19103 ft | 410 kts | 151° |
| 2026-05-04 19:10 | 40.59871 | 24.81238 | 19758 ft | 413 kts | 150° |
| 2026-05-04 19:10 | 40.57334 | 24.82921 | 20410 ft | 416 kts | 151° |
| 2026-05-04 19:10 | 40.54735 | 24.84626 | 21049 ft | 418 kts | 152° |
| 2026-05-04 19:10 | 40.52113 | 24.86304 | 21651 ft | 421 kts | 152° |
| 2026-05-04 19:11 | 40.49455 | 24.87977 | 22234 ft | 424 kts | 152° |
| 2026-05-04 19:11 | 40.46786 | 24.89644 | 22803 ft | 427 kts | 153° |
| 2026-05-04 19:11 | 40.44097 | 24.91318 | 23031 ft | 428 kts | 153° |
| 2026-05-04 19:11 | 40.41359 | 24.93022 | 23068 ft | 443 kts | 153° |
| 2026-05-04 19:12 | 40.38548 | 24.94776 | 23075 ft | 450 kts | 152° |
| 2026-05-04 19:12 | 40.32722 | 24.97837 | 23064 ft | 455 kts | 168° |
| 2026-05-04 19:12 | 40.29557 | 24.98053 | 23076 ft | 458 kts | 184° |
| 2026-05-04 19:13 | 40.26400 | 24.97483 | 23078 ft | 459 kts | 188° |
| 2026-05-04 19:13 | 40.23241 | 24.96850 | 23082 ft | 459 kts | 188° |
| 2026-05-04 19:13 | 40.20088 | 24.96202 | 23076 ft | 460 kts | 188° |
| 2026-05-04 19:13 | 40.16930 | 24.95546 | 23076 ft | 460 kts | 188° |
| 2026-05-04 19:14 | 40.13766 | 24.94892 | 23073 ft | 460 kts | 188° |
| 2026-05-04 19:14 | 40.10594 | 24.94240 | 23073 ft | 460 kts | 188° |
| 2026-05-04 19:14 | 40.07476 | 24.93605 | 23078 ft | 460 kts | 188° |
| 2026-05-04 19:14 | 40.04315 | 24.92967 | 23077 ft | 460 kts | 188° |
| 2026-05-04 19:15 | 40.01152 | 24.92331 | 23073 ft | 460 kts | 188° |
| 2026-05-04 19:15 | 39.97992 | 24.91693 | 23074 ft | 460 kts | 188° |
| 2026-05-04 19:15 | 39.94832 | 24.91053 | 23074 ft | 460 kts | 188° |
| 2026-05-04 19:15 | 39.91671 | 24.90410 | 23075 ft | 460 kts | 188° |
| 2026-05-04 19:16 | 39.88510 | 24.89770 | 23076 ft | 460 kts | 188° |
| 2026-05-04 19:16 | 39.85346 | 24.89132 | 23077 ft | 460 kts | 188° |
| 2026-05-04 19:16 | 39.82189 | 24.88496 | 23083 ft | 460 kts | 188° |
| 2026-05-04 19:16 | 39.79020 | 24.87863 | 23081 ft | 460 kts | 188° |
| 2026-05-04 19:17 | 39.75860 | 24.87234 | 23081 ft | 460 kts | 188° |
| 2026-05-04 19:17 | 39.72693 | 24.86605 | 23082 ft | 461 kts | 188° |
| 2026-05-04 19:17 | 39.69521 | 24.85971 | 23083 ft | 461 kts | 188° |
| 2026-05-04 19:17 | 39.66352 | 24.85332 | 23090 ft | 461 kts | 188° |
| 2026-05-04 19:18 | 39.63175 | 24.84692 | 23088 ft | 461 kts | 188° |
| 2026-05-04 19:18 | 39.60001 | 24.84056 | 23094 ft | 461 kts | 188° |
| 2026-05-04 19:18 | 39.56833 | 24.83422 | 23091 ft | 461 kts | 188° |
| 2026-05-04 19:18 | 39.53664 | 24.82791 | 23092 ft | 461 kts | 188° |
| 2026-05-04 19:19 | 39.50497 | 24.82160 | 23101 ft | 460 kts | 188° |
| 2026-05-04 19:19 | 39.47336 | 24.81527 | 23100 ft | 460 kts | 188° |
| 2026-05-04 19:19 | 39.44171 | 24.80896 | 23101 ft | 460 kts | 188° |
| 2026-05-04 19:19 | 39.41003 | 24.80267 | 23095 ft | 460 kts | 188° |
| 2026-05-04 19:20 | 39.37845 | 24.79640 | 23097 ft | 460 kts | 188° |
| 2026-05-04 19:20 | 39.34674 | 24.79013 | 23096 ft | 460 kts | 188° |
| 2026-05-04 19:20 | 39.31545 | 24.78395 | 23095 ft | 460 kts | 188° |
| 2026-05-04 19:20 | 39.28381 | 24.77764 | 23101 ft | 460 kts | 188° |
| 2026-05-04 19:21 | 39.25175 | 24.77124 | 23103 ft | 460 kts | 188° |
| 2026-05-04 19:21 | 39.22046 | 24.76502 | 23098 ft | 461 kts | 188° |
| 2026-05-04 19:21 | 39.18840 | 24.75869 | 23100 ft | 461 kts | 188° |
| 2026-05-04 19:21 | 39.15664 | 24.75245 | 23099 ft | 461 kts | 188° |
| 2026-05-04 19:22 | 39.12534 | 24.74633 | 23105 ft | 461 kts | 188° |
| 2026-05-04 19:22 | 39.09364 | 24.74013 | 23105 ft | 461 kts | 188° |
| 2026-05-04 19:22 | 39.06194 | 24.73393 | 23104 ft | 461 kts | 188° |
| 2026-05-04 19:22 | 39.03030 | 24.72774 | 23098 ft | 461 kts | 188° |
| 2026-05-04 19:23 | 38.99857 | 24.72150 | 23095 ft | 461 kts | 188° |
| 2026-05-04 19:23 | 38.96684 | 24.71526 | 23096 ft | 461 kts | 188° |
| 2026-05-04 19:23 | 38.93511 | 24.70901 | 23096 ft | 461 kts | 188° |
| 2026-05-04 19:23 | 38.90340 | 24.70277 | 23096 ft | 461 kts | 188° |
| 2026-05-04 19:24 | 38.87168 | 24.69654 | 23100 ft | 461 kts | 188° |
| 2026-05-04 19:24 | 38.83996 | 24.69031 | 23108 ft | 461 kts | 188° |
| 2026-05-04 19:24 | 38.80821 | 24.68409 | 23113 ft | 461 kts | 188° |
| 2026-05-04 19:24 | 38.77648 | 24.67793 | 23114 ft | 461 kts | 188° |
| 2026-05-04 19:25 | 38.74474 | 24.67180 | 23106 ft | 461 kts | 188° |
| 2026-05-04 19:25 | 38.71300 | 24.66564 | 23108 ft | 461 kts | 188° |
| 2026-05-04 19:25 | 38.68123 | 24.65942 | 23109 ft | 461 kts | 188° |
| 2026-05-04 19:25 | 38.64957 | 24.65320 | 23107 ft | 461 kts | 189° |
| 2026-05-04 19:26 | 38.61789 | 24.64702 | 23117 ft | 460 kts | 188° |
| 2026-05-04 19:26 | 38.58620 | 24.64090 | 23120 ft | 460 kts | 188° |
| 2026-05-04 19:26 | 38.55462 | 24.63482 | 23126 ft | 460 kts | 188° |
| 2026-05-04 19:26 | 38.52299 | 24.62872 | 23125 ft | 459 kts | 188° |
| 2026-05-04 19:27 | 38.49141 | 24.62261 | 23120 ft | 459 kts | 188° |
| 2026-05-04 19:27 | 38.46022 | 24.61655 | 23121 ft | 459 kts | 188° |
| 2026-05-04 19:27 | 38.42865 | 24.61041 | 23116 ft | 459 kts | 189° |
| 2026-05-04 19:27 | 38.39711 | 24.60430 | 23115 ft | 458 kts | 189° |
| 2026-05-04 19:28 | 38.36553 | 24.59821 | 23110 ft | 458 kts | 188° |
| 2026-05-04 19:28 | 38.33400 | 24.59218 | 23111 ft | 458 kts | 188° |
| 2026-05-04 19:28 | 38.30245 | 24.58614 | 23111 ft | 458 kts | 188° |
| 2026-05-04 19:28 | 38.27098 | 24.58008 | 23109 ft | 458 kts | 189° |
| 2026-05-04 19:29 | 38.23946 | 24.57399 | 23121 ft | 458 kts | 189° |
| 2026-05-04 19:29 | 38.20792 | 24.56788 | 23113 ft | 458 kts | 189° |
| 2026-05-04 19:29 | 38.17648 | 24.56148 | 23110 ft | 458 kts | 192° |
| 2026-05-04 19:29 | 38.14582 | 24.55067 | 23110 ft | 457 kts | 199° |
| 2026-05-04 19:30 | 38.11570 | 24.53763 | 23110 ft | 457 kts | 199° |
| 2026-05-04 19:30 | 38.08555 | 24.52460 | 23110 ft | 458 kts | 199° |
| 2026-05-04 19:30 | 38.05538 | 24.51157 | 23114 ft | 458 kts | 199° |
| 2026-05-04 19:30 | 38.02524 | 24.49858 | 23117 ft | 458 kts | 199° |
| 2026-05-04 19:31 | 37.99500 | 24.48561 | 23114 ft | 458 kts | 199° |
| 2026-05-04 19:31 | 37.96479 | 24.47267 | 23117 ft | 458 kts | 199° |
| 2026-05-04 19:31 | 37.93457 | 24.45973 | 23116 ft | 458 kts | 199° |
| 2026-05-04 19:31 | 37.90440 | 24.44676 | 23127 ft | 459 kts | 199° |
| 2026-05-04 19:32 | 37.87420 | 24.43378 | 23126 ft | 459 kts | 199° |
| 2026-05-04 19:32 | 37.84399 | 24.42083 | 23128 ft | 458 kts | 199° |
| 2026-05-04 19:32 | 37.81408 | 24.40804 | 22424 ft | 452 kts | 199° |
| 2026-05-04 19:32 | 37.78442 | 24.39541 | 21703 ft | 446 kts | 199° |
| 2026-05-04 19:33 | 37.75522 | 24.38301 | 21042 ft | 439 kts | 199° |
| 2026-05-04 19:33 | 37.72644 | 24.37078 | 20416 ft | 433 kts | 199° |
| 2026-05-04 19:33 | 37.69808 | 24.35872 | 19797 ft | 428 kts | 199° |
| 2026-05-04 19:33 | 37.66995 | 24.34675 | 19195 ft | 425 kts | 199° |
| 2026-05-04 19:34 | 37.64201 | 24.33486 | 18586 ft | 423 kts | 199° |
| 2026-05-04 19:34 | 37.61507 | 24.32154 | 17917 ft | 420 kts | 209° |
| 2026-05-04 19:34 | 37.59104 | 24.30039 | 17280 ft | 413 kts | 225° |
| 2026-05-04 19:34 | 37.57272 | 24.27305 | 16654 ft | 406 kts | 240° |
| 2026-05-04 19:35 | 37.56083 | 24.24177 | 16052 ft | 398 kts | 255° |
| 2026-05-04 19:35 | 37.55544 | 24.20765 | 15430 ft | 389 kts | 269° |
| 2026-05-04 19:35 | 37.55467 | 24.17422 | 14831 ft | 384 kts | 271° |
| 2026-05-04 19:35 | 37.55403 | 24.14073 | 14215 ft | 381 kts | 271° |
| 2026-05-04 19:36 | 37.55333 | 24.10753 | 13563 ft | 377 kts | 271° |
| 2026-05-04 19:36 | 37.55259 | 24.07470 | 12939 ft | 372 kts | 271° |
| 2026-05-04 19:36 | 37.55183 | 24.04235 | 12332 ft | 367 kts | 271° |
| 2026-05-04 19:36 | 37.55108 | 24.01044 | 11734 ft | 362 kts | 271° |
| 2026-05-04 19:37 | 37.55035 | 23.97895 | 11137 ft | 357 kts | 271° |
| 2026-05-04 19:37 | 37.54964 | 23.94794 | 10784 ft | 347 kts | 271° |
| 2026-05-04 19:37 | 37.54893 | 23.91831 | 10661 ft | 330 kts | 272° |
| 2026-05-04 19:37 | 37.54823 | 23.89001 | 10538 ft | 316 kts | 272° |
| 2026-05-04 19:38 | 37.54757 | 23.86286 | 10417 ft | 304 kts | 272° |
| 2026-05-04 19:38 | 37.54694 | 23.83679 | 10278 ft | 293 kts | 272° |
| 2026-05-04 19:38 | 37.54633 | 23.81139 | 10046 ft | 287 kts | 272° |
| 2026-05-04 19:38 | 37.54574 | 23.78639 | 9840 ft | 286 kts | 272° |
| 2026-05-04 19:39 | 37.54515 | 23.76092 | 9288 ft | 291 kts | 272° |
| 2026-05-04 19:39 | 37.54453 | 23.73584 | 8767 ft | 284 kts | 272° |
| 2026-05-04 19:39 | 37.54496 | 23.71194 | 8081 ft | 276 kts | 287° |
| 2026-05-04 19:39 | 37.55379 | 23.69160 | 7469 ft | 258 kts | 322° |
| 2026-05-04 19:40 | 37.56954 | 23.68279 | 7045 ft | 250 kts | 357° |
| 2026-05-04 19:40 | 37.58614 | 23.68805 | 6686 ft | 253 kts | 30° |
| 2026-05-04 19:40 | 37.59996 | 23.70201 | 6296 ft | 255 kts | 36° |
| 2026-05-04 19:40 | 37.61527 | 23.71257 | 5859 ft | 252 kts | 13° |
| 2026-05-04 19:41 | 37.63255 | 23.71709 | 5431 ft | 253 kts | 12° |
| 2026-05-04 19:41 | 37.64972 | 23.72257 | 4966 ft | 256 kts | 14° |
| 2026-05-04 19:41 | 37.66647 | 23.72848 | 4696 ft | 245 kts | 14° |
| 2026-05-04 19:41 | 37.68256 | 23.73426 | 4563 ft | 236 kts | 14° |
| 2026-05-04 19:42 | 37.69805 | 23.73980 | 4454 ft | 226 kts | 14° |
| 2026-05-04 19:42 | 37.71288 | 23.74501 | 4357 ft | 216 kts | 13° |
| 2026-05-04 19:42 | 37.72684 | 23.74983 | 4271 ft | 205 kts | 14° |
| 2026-05-04 19:42 | 37.74015 | 23.75438 | 4181 ft | 194 kts | 14° |
| 2026-05-04 19:43 | 37.75240 | 23.75975 | 4091 ft | 185 kts | 28° |
| 2026-05-04 19:43 | 37.76284 | 23.76875 | 4023 ft | 180 kts | 33° |
| 2026-05-04 19:43 | 37.77290 | 23.77811 | 3915 ft | 179 kts | 34° |
| 2026-05-04 19:43 | 37.78289 | 23.78751 | 3727 ft | 179 kts | 34° |
| 2026-05-04 19:44 | 37.79285 | 23.79692 | 3505 ft | 179 kts | 34° |
| 2026-05-04 19:44 | 37.80282 | 23.80634 | 3265 ft | 179 kts | 34° |
| 2026-05-04 19:44 | 37.81283 | 23.81581 | 3021 ft | 180 kts | 34° |
| 2026-05-04 19:44 | 37.82286 | 23.82530 | 2789 ft | 180 kts | 34° |
| 2026-05-04 19:45 | 37.83277 | 23.83470 | 2578 ft | 176 kts | 34° |
| 2026-05-04 19:45 | 37.84223 | 23.84366 | 2327 ft | 167 kts | 35° |
| 2026-05-04 19:45 | 37.85116 | 23.85214 | 2119 ft | 150 kts | 34° |
| 2026-05-04 19:45 | 37.85913 | 23.85969 | 1918 ft | 139 kts | 35° |
| 2026-05-04 19:46 | 37.86675 | 23.86690 | 1733 ft | 135 kts | 35° |
| 2026-05-04 19:46 | 37.87425 | 23.87401 | 1530 ft | 134 kts | 35° |
| 2026-05-04 19:46 | 37.88171 | 23.88110 | 1362 ft | 134 kts | 36° |
| 2026-05-04 19:46 | 37.88914 | 23.88818 | 1155 ft | 134 kts | 35° |
| 2026-05-04 19:47 | 37.89651 | 23.89516 | 987 ft | 134 kts | 35° |
| 2026-05-04 19:47 | 37.90392 | 23.90221 | 819 ft | 133 kts | 36° |
| 2026-05-04 19:47 | 37.91130 | 23.90922 | 632 ft | 133 kts | 36° |
| 2026-05-04 19:47 | 37.91856 | 23.91620 | 438 ft | 132 kts | 36° |
| 2026-05-04 19:48 | 37.92343 | 23.92082 | 364 ft | 133 kts | 36° |
| 2026-05-04 19:48 | 37.93071 | 23.92774 | 296 ft | 122 kts | 36° |
| 2026-05-04 19:48 | 37.93622 | 23.93294 | 292 ft | 75 kts | 37° |
| 2026-05-04 19:48 | 37.93870 | 23.93557 | 296 ft | 33 kts | 54° |
| 2026-05-04 19:49 | 37.93954 | 23.93779 | 298 ft | 8 kts | 116° |
| 2026-05-04 19:49 | 37.93923 | 23.93812 | 299 ft | 9 kts | 153° |
| 2026-05-04 19:49 | 37.93862 | 23.93795 | 300 ft | 11 kts | 215° |
| 2026-05-04 19:49 | 37.93810 | 23.93746 | 301 ft | 11 kts | 217° |
| 2026-05-04 19:50 | 37.93741 | 23.93679 | 300 ft | 15 kts | 217° |
| 2026-05-04 19:50 | 37.93648 | 23.93603 | 300 ft | 18 kts | 213° |
| 2026-05-04 19:50 | 37.93563 | 23.93509 | 301 ft | 12 kts | 218° |
| 2026-05-04 19:50 | 37.93498 | 23.93467 | 302 ft | 11 kts | 225° |
| 2026-05-04 19:51 | 37.93428 | 23.93444 | 300 ft | 12 kts | 131° |
| 2026-05-04 19:51 | 37.93373 | 23.93541 | 302 ft | 15 kts | 126° |
| 2026-05-04 19:51 | 37.93304 | 23.93652 | 301 ft | 18 kts | 128° |
| 2026-05-04 19:51 | 37.93220 | 23.93789 | 301 ft | 22 kts | 128° |
| 2026-05-04 19:52 | 37.93121 | 23.93951 | 301 ft | 25 kts | 125° |
| 2026-05-04 19:52 | 37.93041 | 23.94098 | 302 ft | 20 kts | 125° |
| 2026-05-04 19:52 | 37.92950 | 23.94241 | 301 ft | 17 kts | 126° |
| 2026-05-04 19:52 | 37.92880 | 23.94362 | 302 ft | 9 kts | 122° |
| 2026-05-04 19:53 | 37.92907 | 23.94432 | 302 ft | 12 kts | 34° |
| 2026-05-04 19:53 | 37.92983 | 23.94503 | 303 ft | 16 kts | 37° |
| 2026-05-04 19:53 | 37.93077 | 23.94590 | 301 ft | 13 kts | 24° |
| 2026-05-04 19:53 | 37.93177 | 23.94594 | 302 ft | 16 kts | 1° |
| 2026-05-04 19:54 | 37.93240 | 23.94608 | 302 ft | 5 kts | 359° |
| 2026-05-04 19:54 | 37.93261 | 23.94583 | 301 ft | 2 kts | 307° |
| 2026-05-04 19:54 | 37.93273 | 23.94561 | 301 ft | 1 kts | 306° |
| 2026-05-04 19:54 | 37.93280 | 23.94549 | 302 ft | 2 kts | 307° |